createdAt,value
2022-10-05T00:02:31.911Z,2.10
2022-10-05T00:07:33.298Z,2.00
2022-10-05T00:12:34.675Z,1.90
2022-10-05T00:17:36.016Z,1.90
2022-10-05T00:22:37.400Z,2.30
2022-10-05T00:27:38.952Z,2.45
2022-10-05T00:32:40.500Z,2.50
2022-10-05T00:37:42.169Z,3.08
2022-10-05T00:42:51.645Z,2.45
2022-10-05T00:47:59.579Z,2.90
2022-10-05T00:53:03.653Z,3.10
2022-10-05T00:58:14.800Z,3.40
2022-10-05T01:03:22.424Z,3.40
2022-10-05T01:08:37.362Z,4.13
2022-10-05T01:13:45.324Z,3.90
2022-10-05T01:18:52.693Z,3.28
2022-10-05T01:24:06.428Z,3.55
2022-10-05T01:29:12.413Z,3.50
2022-10-05T01:34:25.731Z,2.90
2022-10-05T01:39:35.452Z,2.80
2022-10-05T01:44:41.578Z,2.65
2022-10-05T01:49:55.734Z,2.33
2022-10-05T01:55:12.544Z,2.30
2022-10-05T02:00:16.212Z,2.10
2022-10-05T02:05:29.933Z,1.92
2022-10-05T02:10:35.265Z,2.08
2022-10-05T02:15:45.294Z,2.50
2022-10-05T02:20:47.831Z,2.10
2022-10-05T02:25:51.091Z,2.03
2022-10-05T02:30:58.744Z,1.83
2022-10-05T02:36:16.920Z,2.20
2022-10-05T02:41:21.071Z,2.00
2022-10-05T02:46:34.889Z,1.80
2022-10-05T02:51:36.193Z,2.10
2022-10-05T02:56:37.813Z,1.90
2022-10-05T03:01:56.981Z,2.00
2022-10-05T03:07:01.088Z,1.40
2022-10-05T03:12:08.662Z,1.77
2022-10-05T03:17:13.595Z,1.70
2022-10-05T03:22:30.000Z,1.75
2022-10-05T03:27:50.043Z,2.05
2022-10-05T03:33:00.177Z,1.80
2022-10-05T03:38:04.449Z,2.00
2022-10-05T03:43:08.907Z,2.50
2022-10-05T03:48:15.821Z,2.30
2022-10-05T03:53:17.197Z,2.67
2022-10-05T03:58:27.051Z,3.35
2022-10-05T04:03:34.454Z,3.53
2022-10-05T04:08:46.763Z,3.40
2022-10-05T04:13:55.442Z,3.75
2022-10-05T04:19:01.274Z,3.60
2022-10-05T04:24:14.628Z,3.55
2022-10-05T04:29:21.789Z,4.10
2022-10-05T04:34:41.790Z,4.60
2022-10-05T04:45:03.206Z,4.15
2022-10-05T04:50:23.165Z,4.55
2022-10-05T05:00:28.333Z,4.10
2022-10-05T05:06:05.065Z,4.43
2022-10-05T05:11:24.563Z,3.97
2022-10-05T05:16:45.905Z,3.92
2022-10-05T05:21:47.749Z,4.22
2022-10-05T05:26:58.558Z,4.00
2022-10-05T05:32:10.529Z,3.70
2022-10-05T05:37:27.929Z,4.20
2022-10-05T05:42:42.439Z,4.05
2022-10-05T05:47:51.949Z,3.70
2022-10-05T05:58:14.259Z,4.03
2022-10-05T06:03:27.681Z,3.25
2022-10-05T06:08:43.251Z,3.33
2022-10-05T06:13:44.868Z,3.78
2022-10-05T06:18:48.462Z,3.25
2022-10-05T06:23:54.410Z,3.17
2022-10-05T06:28:57.959Z,3.00
2022-10-05T06:34:05.856Z,2.88
2022-10-05T06:39:26.139Z,2.50
2022-10-05T06:44:27.444Z,2.72
2022-10-05T06:49:37.767Z,2.40
2022-10-05T06:54:45.042Z,2.28
2022-10-05T07:00:00.689Z,2.38
2022-10-05T07:05:05.119Z,2.00
2022-10-05T07:10:22.737Z,1.70
2022-10-05T07:15:24.146Z,1.80
2022-10-05T07:20:48.348Z,1.67
2022-10-05T07:25:57.413Z,1.50
2022-10-05T07:31:03.817Z,1.50
2022-10-05T07:36:36.143Z,1.60
2022-10-05T07:41:41.356Z,1.70
2022-10-05T07:47:01.418Z,1.40
2022-10-05T07:52:06.308Z,2.17
2022-10-05T07:57:15.188Z,1.75
2022-10-05T08:02:25.621Z,1.70
2022-10-05T08:07:28.899Z,1.70
2022-10-05T08:12:51.311Z,1.90
2022-10-05T08:17:52.818Z,1.70
2022-10-05T08:22:56.838Z,2.08
2022-10-05T08:28:18.653Z,2.10
2022-10-05T08:33:21.397Z,2.17
2022-10-05T08:38:29.208Z,2.10
2022-10-05T08:43:35.030Z,2.35
2022-10-05T08:48:49.363Z,2.40
2022-10-05T08:54:06.313Z,2.10
2022-10-05T08:59:14.073Z,2.13
2022-10-05T09:04:15.487Z,2.17
2022-10-05T09:09:26.413Z,2.13
2022-10-05T09:14:27.832Z,2.30
2022-10-05T09:19:41.113Z,2.22
2022-10-05T09:24:48.494Z,2.30
2022-10-05T09:30:08.805Z,2.10
2022-10-05T09:35:29.280Z,2.22
2022-10-05T09:40:30.695Z,2.20
2022-10-05T09:45:40.379Z,1.90
2022-10-05T09:51:04.602Z,2.55
2022-10-05T09:56:09.409Z,2.28
2022-10-05T10:01:33.637Z,3.88
2022-10-05T10:06:46.415Z,2.47
2022-10-05T10:12:06.546Z,2.50
2022-10-05T10:17:26.695Z,2.40
2022-10-05T10:22:31.105Z,2.72
2022-10-05T10:27:35.448Z,2.38
2022-10-05T10:32:50.345Z,2.00
2022-10-05T10:37:58.773Z,1.67
2022-10-05T10:43:18.983Z,1.75
2022-10-05T10:48:29.426Z,2.10
2022-10-05T10:53:49.498Z,1.90
2022-10-05T10:58:59.785Z,1.98
2022-10-05T11:04:19.991Z,1.90
2022-10-05T11:09:30.329Z,1.65
2022-10-05T11:14:52.432Z,2.08
2022-10-05T11:20:09.259Z,2.03
2022-10-05T11:25:19.667Z,1.85
2022-10-05T11:30:39.468Z,1.90
2022-10-05T11:35:59.580Z,1.70
2022-10-05T11:41:04.067Z,1.60
2022-10-05T11:46:10.595Z,1.73
2022-10-05T11:51:14.743Z,1.80
2022-10-05T11:56:26.880Z,2.10
2022-10-05T12:01:31.963Z,2.47
2022-10-05T12:06:33.978Z,2.92
2022-10-05T12:11:41.487Z,2.90
2022-10-05T12:16:51.422Z,2.78
2022-10-05T12:21:52.720Z,3.05
2022-10-05T12:27:08.085Z,2.80
2022-10-05T12:32:29.686Z,3.20
2022-10-05T12:37:52.069Z,3.50
2022-10-05T12:43:04.972Z,3.03
2022-10-05T12:48:26.618Z,2.80
2022-10-05T12:53:42.272Z,3.22
2022-10-05T12:58:49.607Z,2.70
2022-10-05T13:04:09.598Z,3.38
2022-10-05T13:09:13.505Z,2.90
2022-10-05T13:14:35.338Z,2.50
2022-10-05T13:19:44.566Z,2.58
2022-10-05T13:24:49.040Z,2.42
2022-10-05T13:30:12.531Z,2.38
2022-10-05T13:35:28.871Z,2.30
2022-10-05T13:40:35.923Z,2.53
2022-10-05T13:45:56.680Z,2.10
2022-10-05T13:51:04.806Z,2.47
2022-10-05T13:56:24.698Z,2.20
2022-10-05T14:01:35.411Z,2.20
2022-10-05T14:06:37.253Z,1.98
2022-10-05T14:11:47.295Z,2.03
2022-10-05T14:16:51.779Z,1.90
2022-10-05T14:22:01.656Z,2.35
2022-10-05T14:27:21.727Z,2.33
2022-10-05T14:32:24.364Z,2.10
2022-10-05T14:37:31.141Z,1.90
2022-10-05T14:42:46.261Z,2.50
2022-10-05T14:47:52.857Z,2.65
2022-10-05T14:53:03.141Z,2.20
2022-10-05T14:58:13.540Z,2.70
2022-10-05T15:03:27.362Z,2.15
2022-10-05T15:08:38.980Z,2.47
2022-10-05T15:13:44.160Z,2.55
2022-10-05T15:18:57.730Z,2.00
2022-10-05T15:24:12.282Z,2.25
2022-10-05T15:29:17.559Z,2.20
2022-10-05T15:34:32.783Z,2.00
2022-10-05T15:39:54.792Z,1.80
2022-10-05T15:45:06.419Z,1.88
2022-10-05T15:50:19.685Z,2.20
2022-10-05T15:55:32.245Z,1.95
2022-10-05T16:00:36.344Z,1.98
2022-10-05T16:05:56.481Z,1.95
2022-10-05T16:10:58.758Z,2.13
2022-10-05T16:16:00.311Z,2.00
2022-10-05T16:21:34.097Z,2.33
2022-10-05T16:26:55.878Z,2.35
2022-10-05T16:32:00.558Z,2.13
2022-10-05T16:37:09.775Z,2.25
2022-10-05T16:42:26.174Z,2.30
2022-10-05T16:47:49.504Z,2.30
2022-10-05T16:52:55.447Z,2.67
2022-10-05T16:57:57.736Z,2.28
2022-10-05T17:03:14.314Z,1.98
2022-10-05T17:08:35.926Z,2.45
2022-10-05T17:13:43.559Z,2.40
2022-10-05T17:19:00.817Z,2.30
2022-10-05T17:24:22.515Z,2.95
2022-10-05T17:29:29.739Z,2.50
2022-10-05T17:34:34.968Z,2.30
2022-10-05T17:39:50.087Z,1.90
2022-10-05T17:45:14.934Z,2.17
2022-10-05T17:50:54.791Z,2.28
2022-10-05T17:56:05.315Z,2.73
2022-10-05T18:01:14.292Z,2.53
2022-10-05T18:06:25.145Z,2.50
2022-10-05T18:11:33.447Z,2.47
2022-10-05T18:16:53.509Z,2.42
2022-10-05T18:22:23.811Z,2.20
2022-10-05T18:27:34.561Z,2.70
2022-10-05T18:33:14.569Z,2.40
2022-10-05T18:38:54.443Z,2.40
2022-10-05T18:44:08.658Z,3.20
2022-10-05T18:49:27.333Z,3.75
2022-10-05T18:54:28.875Z,1.42
2022-10-05T18:59:31.430Z,1.50
2022-10-05T19:04:51.887Z,1.40
2022-10-05T19:10:28.662Z,1.00
2022-10-05T19:15:36.208Z,1.23
2022-10-05T19:20:42.042Z,1.00
2022-10-05T19:25:53.208Z,1.10
2022-10-05T19:30:57.754Z,0.90
2022-10-05T19:36:13.659Z,1.00
2022-10-05T19:41:17.690Z,1.10
2022-10-05T19:46:37.775Z,1.55
2022-10-05T19:51:49.168Z,1.92
2022-10-05T19:56:53.360Z,1.15
2022-10-05T20:13:51.638Z,1.52
2022-10-05T20:24:50.009Z,1.80
2022-10-05T20:30:18.665Z,1.58
2022-10-05T20:35:34.238Z,1.35
2022-10-05T20:40:35.714Z,1.67
2022-10-05T20:45:43.169Z,2.08
2022-10-05T20:50:44.584Z,1.92
2022-10-05T20:55:47.479Z,1.27
2022-10-05T21:01:07.415Z,1.27
2022-10-05T21:11:10.090Z,2.22
2022-10-05T21:16:15.514Z,1.30
2022-10-05T21:21:17.460Z,1.27
2022-10-05T21:26:18.828Z,1.33
2022-10-05T21:31:20.328Z,1.25
2022-10-05T21:36:24.571Z,1.20
2022-10-05T21:41:26.612Z,1.42
2022-10-05T21:46:29.626Z,1.38
2022-10-05T21:51:31.006Z,1.40
2022-10-05T21:56:35.555Z,1.60
2022-10-05T22:01:37.065Z,1.30
2022-10-05T22:06:38.493Z,1.20
2022-10-05T22:11:39.861Z,1.35
2022-10-05T22:16:41.650Z,1.17
2022-10-05T22:21:43.042Z,1.35
2022-10-05T22:26:45.945Z,1.35
2022-10-05T22:31:48.907Z,1.10
2022-10-05T22:36:50.547Z,1.40
2022-10-05T22:41:51.974Z,1.77
2022-10-05T22:46:53.326Z,1.70
2022-10-05T22:51:54.931Z,1.60
2022-10-05T22:56:56.300Z,1.90
2022-10-05T23:01:58.105Z,1.55
2022-10-05T23:06:59.584Z,1.40
2022-10-05T23:12:01.174Z,2.47
2022-10-05T23:17:02.718Z,1.50
2022-10-05T23:22:04.214Z,1.48
2022-10-05T23:27:05.554Z,1.77
2022-10-05T23:32:07.959Z,1.20
2022-10-05T23:37:09.487Z,1.67
2022-10-05T23:42:10.934Z,1.70
2022-10-05T23:47:12.367Z,1.60
2022-10-05T23:52:13.732Z,1.70
2022-10-05T23:57:18.380Z,1.88
